sensor_id;sensor_type;location;lat;lon;timestamp;temperature;humidity
74617;DHT22;63123;50.906;4.198;2023-04-01T00:01:57;16.80;61.10
74617;DHT22;63123;50.906;4.198;2023-04-01T00:04:23;16.80;61.10
74617;DHT22;63123;50.906;4.198;2023-04-01T00:06:49;16.80;61.10
74617;DHT22;63123;50.906;4.198;2023-04-01T00:09:14;16.80;61.10
74617;DHT22;63123;50.906;4.198;2023-04-01T00:11:40;16.80;61.10
74617;DHT22;63123;50.906;4.198;2023-04-01T00:14:07;16.80;61.10
74617;DHT22;63123;50.906;4.198;2023-04-01T00:16:32;16.80;61.10
74617;DHT22;63123;50.906;4.198;2023-04-01T00:18:58;16.80;61.30
74617;DHT22;63123;50.906;4.198;2023-04-01T00:21:25;16.80;61.10
74617;DHT22;63123;50.906;4.198;2023-04-01T00:23:51;16.80;61.10
74617;DHT22;63123;50.906;4.198;2023-04-01T00:26:17;16.80;61.10
74617;DHT22;63123;50.906;4.198;2023-04-01T00:28:46;16.80;61.10
74617;DHT22;63123;50.906;4.198;2023-04-01T00:31:12;16.80;61.10
74617;DHT22;63123;50.906;4.198;2023-04-01T00:33:39;16.80;61.10
74617;DHT22;63123;50.906;4.198;2023-04-01T00:36:16;16.80;61.10
74617;DHT22;63123;50.906;4.198;2023-04-01T00:38:42;16.80;61.10
74617;DHT22;63123;50.906;4.198;2023-04-01T00:41:12;16.80;61.10
74617;DHT22;63123;50.906;4.198;2023-04-01T00:43:42;16.80;61.10
74617;DHT22;63123;50.906;4.198;2023-04-01T00:46:08;16.80;61.20
74617;DHT22;63123;50.906;4.198;2023-04-01T00:48:36;16.80;61.20
74617;DHT22;63123;50.906;4.198;2023-04-01T00:51:11;16.80;61.80
74617;DHT22;63123;50.906;4.198;2023-04-01T00:53:41;16.80;61.20
74617;DHT22;63123;50.906;4.198;2023-04-01T00:56:22;16.80;61.20
74617;DHT22;63123;50.906;4.198;2023-04-01T00:58:56;16.80;61.20
74617;DHT22;63123;50.906;4.198;2023-04-01T01:01:23;16.80;61.20
74617;DHT22;63123;50.906;4.198;2023-04-01T01:03:49;16.80;61.20
74617;DHT22;63123;50.906;4.198;2023-04-01T01:17:58;16.70;61.10
74617;DHT22;63123;50.906;4.198;2023-04-01T01:20:47;16.80;61.20
74617;DHT22;63123;50.906;4.198;2023-04-01T01:31:50;16.80;61.10
74617;DHT22;63123;50.906;4.198;2023-04-01T01:37:01;16.80;61.20
74617;DHT22;63123;50.906;4.198;2023-04-01T01:39:31;16.80;61.10
74617;DHT22;63123;50.906;4.198;2023-04-01T01:42:03;16.80;61.10
74617;DHT22;63123;50.906;4.198;2023-04-01T01:44:30;16.80;61.10
74617;DHT22;63123;50.906;4.198;2023-04-01T01:46:57;16.80;61.10
74617;DHT22;63123;50.906;4.198;2023-04-01T01:49:24;16.80;61.10
74617;DHT22;63123;50.906;4.198;2023-04-01T01:51:50;16.80;61.10
74617;DHT22;63123;50.906;4.198;2023-04-01T01:54:17;16.80;61.10
74617;DHT22;63123;50.906;4.198;2023-04-01T01:56:46;16.80;61.00
74617;DHT22;63123;50.906;4.198;2023-04-01T01:59:13;16.70;61.00
74617;DHT22;63123;50.906;4.198;2023-04-01T02:01:43;16.80;61.00
74617;DHT22;63123;50.906;4.198;2023-04-01T02:04:10;16.80;61.00
74617;DHT22;63123;50.906;4.198;2023-04-01T02:06:39;16.70;60.90
74617;DHT22;63123;50.906;4.198;2023-04-01T02:09:08;16.70;60.90
74617;DHT22;63123;50.906;4.198;2023-04-01T02:11:49;16.80;60.90
74617;DHT22;63123;50.906;4.198;2023-04-01T02:14:28;16.80;60.90
74617;DHT22;63123;50.906;4.198;2023-04-01T02:17:04;16.80;60.90
74617;DHT22;63123;50.906;4.198;2023-04-01T02:19:43;16.80;60.90
74617;DHT22;63123;50.906;4.198;2023-04-01T02:22:14;16.80;60.90
74617;DHT22;63123;50.906;4.198;2023-04-01T02:24:42;16.80;60.90
74617;DHT22;63123;50.906;4.198;2023-04-01T02:27:09;16.80;60.90
74617;DHT22;63123;50.906;4.198;2023-04-01T02:29:36;16.80;60.90
74617;DHT22;63123;50.906;4.198;2023-04-01T02:32:02;16.70;61.20
74617;DHT22;63123;50.906;4.198;2023-04-01T02:34:29;16.80;60.90
74617;DHT22;63123;50.906;4.198;2023-04-01T02:36:55;16.70;60.80
74617;DHT22;63123;50.906;4.198;2023-04-01T02:39:22;16.80;60.80
74617;DHT22;63123;50.906;4.198;2023-04-01T02:41:48;16.70;60.80
74617;DHT22;63123;50.906;4.198;2023-04-01T02:44:15;16.80;60.90
74617;DHT22;63123;50.906;4.198;2023-04-01T02:46:41;16.80;60.80
74617;DHT22;63123;50.906;4.198;2023-04-01T02:49:06;16.70;60.80
74617;DHT22;63123;50.906;4.198;2023-04-01T02:51:33;16.80;60.80
74617;DHT22;63123;50.906;4.198;2023-04-01T02:53:59;16.80;60.80
74617;DHT22;63123;50.906;4.198;2023-04-01T02:56:25;16.80;60.80
74617;DHT22;63123;50.906;4.198;2023-04-01T02:58:51;16.80;60.80
74617;DHT22;63123;50.906;4.198;2023-04-01T03:01:17;16.70;60.80
74617;DHT22;63123;50.906;4.198;2023-04-01T03:03:43;16.80;60.80
74617;DHT22;63123;50.906;4.198;2023-04-01T03:06:11;16.70;60.80
74617;DHT22;63123;50.906;4.198;2023-04-01T03:08:37;16.80;60.80
74617;DHT22;63123;50.906;4.198;2023-04-01T03:11:03;16.80;60.80
74617;DHT22;63123;50.906;4.198;2023-04-01T03:13:29;16.80;60.90
74617;DHT22;63123;50.906;4.198;2023-04-01T03:15:55;16.70;60.80
74617;DHT22;63123;50.906;4.198;2023-04-01T03:18:21;16.70;60.80
74617;DHT22;63123;50.906;4.198;2023-04-01T03:20:46;16.70;60.80
74617;DHT22;63123;50.906;4.198;2023-04-01T03:23:12;16.70;60.80
74617;DHT22;63123;50.906;4.198;2023-04-01T03:25:38;16.70;60.80
74617;DHT22;63123;50.906;4.198;2023-04-01T03:28:04;16.70;60.80
74617;DHT22;63123;50.906;4.198;2023-04-01T03:30:29;16.80;60.80
74617;DHT22;63123;50.906;4.198;2023-04-01T03:32:57;16.70;60.80
74617;DHT22;63123;50.906;4.198;2023-04-01T03:35:23;16.70;60.80
74617;DHT22;63123;50.906;4.198;2023-04-01T03:37:50;16.70;60.70
74617;DHT22;63123;50.906;4.198;2023-04-01T03:40:15;16.80;60.80
74617;DHT22;63123;50.906;4.198;2023-04-01T03:42:41;16.70;60.70
74617;DHT22;63123;50.906;4.198;2023-04-01T03:45:07;16.80;60.70
74617;DHT22;63123;50.906;4.198;2023-04-01T03:47:33;16.80;60.70
74617;DHT22;63123;50.906;4.198;2023-04-01T03:49:59;16.70;60.70
74617;DHT22;63123;50.906;4.198;2023-04-01T03:52:25;16.80;60.70
74617;DHT22;63123;50.906;4.198;2023-04-01T03:54:50;16.70;60.70
74617;DHT22;63123;50.906;4.198;2023-04-01T03:57:16;16.80;60.70
74617;DHT22;63123;50.906;4.198;2023-04-01T03:59:42;16.70;60.70
74617;DHT22;63123;50.906;4.198;2023-04-01T04:02:07;16.80;60.70
74617;DHT22;63123;50.906;4.198;2023-04-01T04:04:33;16.70;60.60
74617;DHT22;63123;50.906;4.198;2023-04-01T04:06:59;16.70;60.60
74617;DHT22;63123;50.906;4.198;2023-04-01T04:09:24;16.80;60.70
74617;DHT22;63123;50.906;4.198;2023-04-01T04:11:50;16.70;60.70
74617;DHT22;63123;50.906;4.198;2023-04-01T04:14:16;16.70;60.60
74617;DHT22;63123;50.906;4.198;2023-04-01T04:16:42;16.70;60.60
74617;DHT22;63123;50.906;4.198;2023-04-01T04:19:08;16.70;60.60
74617;DHT22;63123;50.906;4.198;2023-04-01T04:21:33;16.80;60.70
74617;DHT22;63123;50.906;4.198;2023-04-01T04:24:00;16.70;60.70
74617;DHT22;63123;50.906;4.198;2023-04-01T04:26:26;16.80;60.70
74617;DHT22;63123;50.906;4.198;2023-04-01T04:28:53;16.70;61.30
74617;DHT22;63123;50.906;4.198;2023-04-01T04:31:21;16.80;60.70
74617;DHT22;63123;50.906;4.198;2023-04-01T04:33:46;16.70;60.70
74617;DHT22;63123;50.906;4.198;2023-04-01T04:36:12;16.70;61.30
74617;DHT22;63123;50.906;4.198;2023-04-01T04:38:38;16.80;60.70
74617;DHT22;63123;50.906;4.198;2023-04-01T04:41:11;16.70;60.60
74617;DHT22;63123;50.906;4.198;2023-04-01T04:43:38;16.70;60.70
74617;DHT22;63123;50.906;4.198;2023-04-01T04:46:13;16.70;60.70
74617;DHT22;63123;50.906;4.198;2023-04-01T04:48:39;16.70;60.70
74617;DHT22;63123;50.906;4.198;2023-04-01T04:51:04;16.70;60.60
74617;DHT22;63123;50.906;4.198;2023-04-01T04:53:30;16.70;60.70
74617;DHT22;63123;50.906;4.198;2023-04-01T04:55:56;16.70;60.70
74617;DHT22;63123;50.906;4.198;2023-04-01T04:58:21;16.70;60.70
74617;DHT22;63123;50.906;4.198;2023-04-01T05:00:47;16.70;60.70
74617;DHT22;63123;50.906;4.198;2023-04-01T05:03:13;16.70;60.60
74617;DHT22;63123;50.906;4.198;2023-04-01T05:05:39;16.70;60.60
74617;DHT22;63123;50.906;4.198;2023-04-01T05:08:05;16.70;60.70
74617;DHT22;63123;50.906;4.198;2023-04-01T05:10:31;16.70;60.60
74617;DHT22;63123;50.906;4.198;2023-04-01T05:12:58;16.70;60.60
74617;DHT22;63123;50.906;4.198;2023-04-01T05:15:24;16.70;60.70
74617;DHT22;63123;50.906;4.198;2023-04-01T05:17:50;16.70;60.70
74617;DHT22;63123;50.906;4.198;2023-04-01T05:20:16;16.70;60.70
74617;DHT22;63123;50.906;4.198;2023-04-01T05:22:42;16.80;60.70
74617;DHT22;63123;50.906;4.198;2023-04-01T05:25:09;16.70;60.70
74617;DHT22;63123;50.906;4.198;2023-04-01T05:27:35;16.70;60.70
74617;DHT22;63123;50.906;4.198;2023-04-01T05:30:00;16.70;60.60
74617;DHT22;63123;50.906;4.198;2023-04-01T05:32:26;16.80;60.70
74617;DHT22;63123;50.906;4.198;2023-04-01T05:34:52;16.70;60.60
74617;DHT22;63123;50.906;4.198;2023-04-01T05:37:18;16.80;60.70
74617;DHT22;63123;50.906;4.198;2023-04-01T05:39:44;16.70;60.60
74617;DHT22;63123;50.906;4.198;2023-04-01T05:42:10;16.70;60.60
74617;DHT22;63123;50.906;4.198;2023-04-01T05:44:35;16.70;60.60
74617;DHT22;63123;50.906;4.198;2023-04-01T05:47:02;16.70;60.60
74617;DHT22;63123;50.906;4.198;2023-04-01T05:49:28;16.70;60.50
74617;DHT22;63123;50.906;4.198;2023-04-01T05:51:53;16.70;60.60
74617;DHT22;63123;50.906;4.198;2023-04-01T05:54:19;16.70;60.60
74617;DHT22;63123;50.906;4.198;2023-04-01T05:56:45;16.70;60.60
74617;DHT22;63123;50.906;4.198;2023-04-01T05:59:11;16.70;60.60
74617;DHT22;63123;50.906;4.198;2023-04-01T06:01:37;16.70;60.50
74617;DHT22;63123;50.906;4.198;2023-04-01T06:04:03;16.70;60.60
74617;DHT22;63123;50.906;4.198;2023-04-01T06:06:31;16.80;60.60
74617;DHT22;63123;50.906;4.198;2023-04-01T06:09:26;16.80;60.60
74617;DHT22;63123;50.906;4.198;2023-04-01T06:17:52;16.70;60.50
74617;DHT22;63123;50.906;4.198;2023-04-01T06:20:32;16.70;60.50
74617;DHT22;63123;50.906;4.198;2023-04-01T06:26:18;16.70;60.60
74617;DHT22;63123;50.906;4.198;2023-04-01T06:54:51;16.70;60.50
74617;DHT22;63123;50.906;4.198;2023-04-01T06:57:44;16.70;60.40
74617;DHT22;63123;50.906;4.198;2023-04-01T07:00:16;16.70;60.50
74617;DHT22;63123;50.906;4.198;2023-04-01T07:02:49;16.70;60.50
74617;DHT22;63123;50.906;4.198;2023-04-01T07:05:19;16.70;60.50
74617;DHT22;63123;50.906;4.198;2023-04-01T07:07:48;16.70;60.50
74617;DHT22;63123;50.906;4.198;2023-04-01T07:10:20;16.70;60.50
74617;DHT22;63123;50.906;4.198;2023-04-01T07:12:50;16.70;60.50
74617;DHT22;63123;50.906;4.198;2023-04-01T07:15:24;16.70;60.50
74617;DHT22;63123;50.906;4.198;2023-04-01T07:17:57;16.70;60.40
74617;DHT22;63123;50.906;4.198;2023-04-01T07:20:27;16.80;60.50
74617;DHT22;63123;50.906;4.198;2023-04-01T07:23:05;16.70;60.40
74617;DHT22;63123;50.906;4.198;2023-04-01T07:25:38;16.80;60.50
74617;DHT22;63123;50.906;4.198;2023-04-01T07:28:11;16.70;60.50
74617;DHT22;63123;50.906;4.198;2023-04-01T07:33:38;16.70;60.40
74617;DHT22;63123;50.906;4.198;2023-04-01T07:49:49;16.80;60.40
74617;DHT22;63123;50.906;4.198;2023-04-01T08:05:52;16.80;60.40
74617;DHT22;63123;50.906;4.198;2023-04-01T08:08:37;16.70;60.40
74617;DHT22;63123;50.906;4.198;2023-04-01T08:21:58;16.70;60.40
74617;DHT22;63123;50.906;4.198;2023-04-01T08:24:35;16.80;60.50
74617;DHT22;63123;50.906;4.198;2023-04-01T08:27:10;16.80;60.50
74617;DHT22;63123;50.906;4.198;2023-04-01T08:29:55;16.70;60.50
74617;DHT22;63123;50.906;4.198;2023-04-01T08:32:42;16.80;60.60
74617;DHT22;63123;50.906;4.198;2023-04-01T08:35:31;16.80;60.50
74617;DHT22;63123;50.906;4.198;2023-04-01T08:38:01;16.80;60.50
74617;DHT22;63123;50.906;4.198;2023-04-01T08:41:08;16.70;60.60
74617;DHT22;63123;50.906;4.198;2023-04-01T08:43:55;16.70;60.60
74617;DHT22;63123;50.906;4.198;2023-04-01T08:49:42;16.80;60.60
74617;DHT22;63123;50.906;4.198;2023-04-01T08:52:25;16.70;60.60
74617;DHT22;63123;50.906;4.198;2023-04-01T08:58:42;16.70;60.60
74617;DHT22;63123;50.906;4.198;2023-04-01T09:00:54;16.70;60.60
74617;DHT22;63123;50.906;4.198;2023-04-01T09:03:44;16.70;60.70
74617;DHT22;63123;50.906;4.198;2023-04-01T09:20:08;16.70;60.70
74617;DHT22;63123;50.906;4.198;2023-04-01T09:22:49;16.70;60.70
74617;DHT22;63123;50.906;4.198;2023-04-01T09:34:25;16.70;60.80
74617;DHT22;63123;50.906;4.198;2023-04-01T09:37:19;16.70;60.80
74617;DHT22;63123;50.906;4.198;2023-04-01T09:40:18;16.70;60.80
74617;DHT22;63123;50.906;4.198;2023-04-01T09:54:47;16.70;60.80
74617;DHT22;63123;50.906;4.198;2023-04-01T10:23:35;16.80;61.00
74617;DHT22;63123;50.906;4.198;2023-04-01T10:29:30;16.80;61.10
74617;DHT22;63123;50.906;4.198;2023-04-01T10:46:08;16.80;61.20
74617;DHT22;63123;50.906;4.198;2023-04-01T10:54:40;16.80;61.30
74617;DHT22;63123;50.906;4.198;2023-04-01T11:00:23;16.80;61.30
74617;DHT22;63123;50.906;4.198;2023-04-01T11:03:12;16.70;61.20
74617;DHT22;63123;50.906;4.198;2023-04-01T11:25:39;16.80;61.40
74617;DHT22;63123;50.906;4.198;2023-04-01T11:28:39;16.80;61.40
74617;DHT22;63123;50.906;4.198;2023-04-01T11:31:17;16.80;61.40
74617;DHT22;63123;50.906;4.198;2023-04-01T11:44:30;16.80;61.40
74617;DHT22;63123;50.906;4.198;2023-04-01T11:49:49;16.80;61.40
74617;DHT22;63123;50.906;4.198;2023-04-01T12:15:18;16.80;61.20
74617;DHT22;63123;50.906;4.198;2023-04-01T12:20:56;16.80;61.20
74617;DHT22;63123;50.906;4.198;2023-04-01T12:23:36;16.80;61.10
74617;DHT22;63123;50.906;4.198;2023-04-01T12:29:18;16.80;61.20
74617;DHT22;63123;50.906;4.198;2023-04-01T12:31:52;16.80;61.10
74617;DHT22;63123;50.906;4.198;2023-04-01T12:34:45;16.80;61.20
74617;DHT22;63123;50.906;4.198;2023-04-01T12:37:35;16.80;61.10
74617;DHT22;63123;50.906;4.198;2023-04-01T12:49:52;16.80;61.20
74617;DHT22;63123;50.906;4.198;2023-04-01T12:54:38;16.80;61.10
74617;DHT22;63123;50.906;4.198;2023-04-01T12:57:26;16.80;61.10
74617;DHT22;63123;50.906;4.198;2023-04-01T13:02:47;16.80;61.10
74617;DHT22;63123;50.906;4.198;2023-04-01T13:13:39;16.80;61.10
74617;DHT22;63123;50.906;4.198;2023-04-01T13:16:21;16.80;61.80
74617;DHT22;63123;50.906;4.198;2023-04-01T13:18:55;16.80;61.10
74617;DHT22;63123;50.906;4.198;2023-04-01T13:21:50;16.80;61.10
74617;DHT22;63123;50.906;4.198;2023-04-01T13:24:25;16.80;61.00
74617;DHT22;63123;50.906;4.198;2023-04-01T13:35:31;16.80;61.10
74617;DHT22;63123;50.906;4.198;2023-04-01T13:40:40;16.80;61.10
74617;DHT22;63123;50.906;4.198;2023-04-01T13:43:23;16.80;61.10
74617;DHT22;63123;50.906;4.198;2023-04-01T13:48:41;16.80;61.10
74617;DHT22;63123;50.906;4.198;2023-04-01T13:51:39;16.80;61.10
74617;DHT22;63123;50.906;4.198;2023-04-01T13:54:29;16.80;61.10
74617;DHT22;63123;50.906;4.198;2023-04-01T14:00:10;16.80;61.10
74617;DHT22;63123;50.906;4.198;2023-04-01T14:08:09;16.80;61.10
74617;DHT22;63123;50.906;4.198;2023-04-01T14:10:45;16.80;61.10
74617;DHT22;63123;50.906;4.198;2023-04-01T14:27:21;16.80;61.10
74617;DHT22;63123;50.906;4.198;2023-04-01T14:32:28;16.80;61.10
74617;DHT22;63123;50.906;4.198;2023-04-01T14:41:25;16.80;61.10
74617;DHT22;63123;50.906;4.198;2023-04-01T14:44:11;16.80;61.10
74617;DHT22;63123;50.906;4.198;2023-04-01T14:46:53;16.80;61.10
74617;DHT22;63123;50.906;4.198;2023-04-01T14:49:35;16.80;61.10
74617;DHT22;63123;50.906;4.198;2023-04-01T14:52:32;16.80;61.20
74617;DHT22;63123;50.906;4.198;2023-04-01T14:55:00;16.80;61.10
74617;DHT22;63123;50.906;4.198;2023-04-01T14:57:31;16.80;61.00
74617;DHT22;63123;50.906;4.198;2023-04-01T15:03:36;16.80;61.00
74617;DHT22;63123;50.906;4.198;2023-04-01T15:05:52;16.80;60.90
74617;DHT22;63123;50.906;4.198;2023-04-01T15:08:22;16.80;61.00
74617;DHT22;63123;50.906;4.198;2023-04-01T15:11:19;16.80;61.00
74617;DHT22;63123;50.906;4.198;2023-04-01T15:16:49;16.80;61.00
74617;DHT22;63123;50.906;4.198;2023-04-01T15:19:38;16.80;60.80
74617;DHT22;63123;50.906;4.198;2023-04-01T15:25:18;16.80;60.80
74617;DHT22;63123;50.906;4.198;2023-04-01T15:28:08;16.80;60.70
74617;DHT22;63123;50.906;4.198;2023-04-01T15:30:59;16.80;60.70
74617;DHT22;63123;50.906;4.198;2023-04-01T15:33:47;16.80;60.60
74617;DHT22;63123;50.906;4.198;2023-04-01T15:46:58;16.80;60.60
74617;DHT22;63123;50.906;4.198;2023-04-01T15:51:58;16.80;60.60
74617;DHT22;63123;50.906;4.198;2023-04-01T16:02:38;16.80;60.50
74617;DHT22;63123;50.906;4.198;2023-04-01T16:05:28;16.80;60.50
74617;DHT22;63123;50.906;4.198;2023-04-01T16:24:00;16.80;60.50
74617;DHT22;63123;50.906;4.198;2023-04-01T16:34:44;16.80;60.50
74617;DHT22;63123;50.906;4.198;2023-04-01T16:37:28;16.80;60.50
74617;DHT22;63123;50.906;4.198;2023-04-01T16:40:11;16.80;60.50
74617;DHT22;63123;50.906;4.198;2023-04-01T16:45:33;16.80;60.50
74617;DHT22;63123;50.906;4.198;2023-04-01T16:48:13;16.80;60.60
74617;DHT22;63123;50.906;4.198;2023-04-01T16:58:14;16.80;60.60
74617;DHT22;63123;50.906;4.198;2023-04-01T17:00:53;16.80;60.60
74617;DHT22;63123;50.906;4.198;2023-04-01T17:03:27;16.80;60.50
74617;DHT22;63123;50.906;4.198;2023-04-01T17:11:20;16.80;60.50
74617;DHT22;63123;50.906;4.198;2023-04-01T17:17:01;16.80;60.50
74617;DHT22;63123;50.906;4.198;2023-04-01T17:25:08;16.80;60.50
74617;DHT22;63123;50.906;4.198;2023-04-01T17:28:42;16.80;60.60
74617;DHT22;63123;50.906;4.198;2023-04-01T17:39:24;16.80;60.50
74617;DHT22;63123;50.906;4.198;2023-04-01T17:44:57;16.80;60.50
74617;DHT22;63123;50.906;4.198;2023-04-01T17:47:31;16.80;60.50
74617;DHT22;63123;50.906;4.198;2023-04-01T17:50:15;16.80;60.50
74617;DHT22;63123;50.906;4.198;2023-04-01T17:56:20;16.80;60.60
74617;DHT22;63123;50.906;4.198;2023-04-01T17:58:30;16.80;60.60
74617;DHT22;63123;50.906;4.198;2023-04-01T18:01:17;16.80;60.60
74617;DHT22;63123;50.906;4.198;2023-04-01T18:06:55;16.80;60.60
74617;DHT22;63123;50.906;4.198;2023-04-01T18:12:21;16.80;60.50
74617;DHT22;63123;50.906;4.198;2023-04-01T18:17:46;16.80;60.50
74617;DHT22;63123;50.906;4.198;2023-04-01T18:20:24;16.80;60.50
74617;DHT22;63123;50.906;4.198;2023-04-01T18:25:54;16.80;60.50
74617;DHT22;63123;50.906;4.198;2023-04-01T18:28:32;16.80;60.60
74617;DHT22;63123;50.906;4.198;2023-04-01T18:36:21;16.80;60.50
74617;DHT22;63123;50.906;4.198;2023-04-01T18:39:02;16.80;60.40
74617;DHT22;63123;50.906;4.198;2023-04-01T18:44:46;16.80;60.40
74617;DHT22;63123;50.906;4.198;2023-04-01T18:47:38;16.80;60.50
74617;DHT22;63123;50.906;4.198;2023-04-01T18:52:44;16.80;60.40
74617;DHT22;63123;50.906;4.198;2023-04-01T18:55:40;16.80;60.40
74617;DHT22;63123;50.906;4.198;2023-04-01T19:01:08;16.70;60.30
74617;DHT22;63123;50.906;4.198;2023-04-01T19:04:00;16.80;60.40
74617;DHT22;63123;50.906;4.198;2023-04-01T19:09:25;16.70;60.20
74617;DHT22;63123;50.906;4.198;2023-04-01T19:11:58;16.80;60.30
74617;DHT22;63123;50.906;4.198;2023-04-01T19:17:17;16.80;60.30
74617;DHT22;63123;50.906;4.198;2023-04-01T19:20:00;16.80;60.30
74617;DHT22;63123;50.906;4.198;2023-04-01T19:25:42;16.80;60.30
74617;DHT22;63123;50.906;4.198;2023-04-01T19:28:31;16.80;60.20
74617;DHT22;63123;50.906;4.198;2023-04-01T19:34:42;16.80;60.10
74617;DHT22;63123;50.906;4.198;2023-04-01T19:42:53;16.80;60.10
74617;DHT22;63123;50.906;4.198;2023-04-01T19:48:42;16.80;60.20
74617;DHT22;63123;50.906;4.198;2023-04-01T19:51:16;16.80;60.10
74617;DHT22;63123;50.906;4.198;2023-04-01T19:56:56;16.80;60.20
74617;DHT22;63123;50.906;4.198;2023-04-01T19:59:31;16.80;60.10
74617;DHT22;63123;50.906;4.198;2023-04-01T20:04:44;16.80;60.20
74617;DHT22;63123;50.906;4.198;2023-04-01T20:09:56;16.80;60.20
74617;DHT22;63123;50.906;4.198;2023-04-01T20:12:33;16.80;60.20
74617;DHT22;63123;50.906;4.198;2023-04-01T20:17:59;16.80;60.10
74617;DHT22;63123;50.906;4.198;2023-04-01T20:20:27;16.80;60.20
74617;DHT22;63123;50.906;4.198;2023-04-01T20:23:33;16.80;60.40
74617;DHT22;63123;50.906;4.198;2023-04-01T20:26:10;16.80;60.10
74617;DHT22;63123;50.906;4.198;2023-04-01T20:31:33;16.80;60.10
74617;DHT22;63123;50.906;4.198;2023-04-01T20:34:26;16.80;60.10
74617;DHT22;63123;50.906;4.198;2023-04-01T20:42:44;16.70;60.10
74617;DHT22;63123;50.906;4.198;2023-04-01T20:45:35;16.80;60.10
74617;DHT22;63123;50.906;4.198;2023-04-01T20:48:16;16.80;60.20
74617;DHT22;63123;50.906;4.198;2023-04-01T20:50:53;16.80;60.20
74617;DHT22;63123;50.906;4.198;2023-04-01T21:02:03;16.70;60.10
74617;DHT22;63123;50.906;4.198;2023-04-01T21:07:32;16.80;60.20
74617;DHT22;63123;50.906;4.198;2023-04-01T21:24:36;16.80;60.30
74617;DHT22;63123;50.906;4.198;2023-04-01T21:32:19;16.70;60.30
74617;DHT22;63123;50.906;4.198;2023-04-01T21:37:42;16.70;60.30
74617;DHT22;63123;50.906;4.198;2023-04-01T21:45:57;16.80;60.40
74617;DHT22;63123;50.906;4.198;2023-04-01T21:51:35;16.80;60.40
74617;DHT22;63123;50.906;4.198;2023-04-01T22:00:21;16.70;60.40
74617;DHT22;63123;50.906;4.198;2023-04-01T22:16:23;16.80;60.50
74617;DHT22;63123;50.906;4.198;2023-04-01T22:19:14;16.70;60.50
74617;DHT22;63123;50.906;4.198;2023-04-01T22:32:42;16.70;60.60
74617;DHT22;63123;50.906;4.198;2023-04-01T22:35:24;16.70;60.60
74617;DHT22;63123;50.906;4.198;2023-04-01T22:40:45;16.70;60.60
74617;DHT22;63123;50.906;4.198;2023-04-01T22:46:19;16.70;60.60
74617;DHT22;63123;50.906;4.198;2023-04-01T22:49:03;16.70;60.60
74617;DHT22;63123;50.906;4.198;2023-04-01T22:51:47;16.80;60.70
74617;DHT22;63123;50.906;4.198;2023-04-01T22:59:39;16.80;60.70
74617;DHT22;63123;50.906;4.198;2023-04-01T23:05:13;16.70;60.70
74617;DHT22;63123;50.906;4.198;2023-04-01T23:07:59;16.80;60.70
74617;DHT22;63123;50.906;4.198;2023-04-01T23:10:49;16.70;60.70
74617;DHT22;63123;50.906;4.198;2023-04-01T23:13:27;16.70;60.60
74617;DHT22;63123;50.906;4.198;2023-04-01T23:15:54;16.80;60.70
74617;DHT22;63123;50.906;4.198;2023-04-01T23:21:17;16.70;60.60
74617;DHT22;63123;50.906;4.198;2023-04-01T23:26:34;16.70;60.60
74617;DHT22;63123;50.906;4.198;2023-04-01T23:29:02;16.70;60.60
74617;DHT22;63123;50.906;4.198;2023-04-01T23:36:30;16.70;60.50
74617;DHT22;63123;50.906;4.198;2023-04-01T23:39:05;16.70;60.40
74617;DHT22;63123;50.906;4.198;2023-04-01T23:41:32;16.80;60.50
74617;DHT22;63123;50.906;4.198;2023-04-01T23:44:10;16.70;60.40
74617;DHT22;63123;50.906;4.198;2023-04-01T23:46:38;16.70;61.00
74617;DHT22;63123;50.906;4.198;2023-04-01T23:49:14;16.70;60.40
74617;DHT22;63123;50.906;4.198;2023-04-01T23:51:51;16.80;60.40
74617;DHT22;63123;50.906;4.198;2023-04-01T23:54:33;16.70;60.30
74617;DHT22;63123;50.906;4.198;2023-04-01T23:57:04;16.70;60.30
74617;DHT22;63123;50.906;4.198;2023-04-01T23:59:35;16.70;60.30
